sensor_id;sensor_type;location;lat;lon;timestamp;P1;durP1;ratioP1;P2;durP2;ratioP2
18449;SDS011;9354;50.194;7.690;2024-03-02T00:00:49;7.57;;;3.27;;
18449;SDS011;9354;50.194;7.690;2024-03-02T00:03:17;8.60;;;4.03;;
18449;SDS011;9354;50.194;7.690;2024-03-02T00:05:49;8.93;;;4.30;;
18449;SDS011;9354;50.194;7.690;2024-03-02T00:08:21;9.00;;;4.70;;
18449;SDS011;9354;50.194;7.690;2024-03-02T00:10:51;7.50;;;4.30;;
18449;SDS011;9354;50.194;7.690;2024-03-02T00:13:23;10.50;;;5.73;;
18449;SDS011;9354;50.194;7.690;2024-03-02T00:15:51;8.73;;;4.90;;
18449;SDS011;9354;50.194;7.690;2024-03-02T00:18:21;10.57;;;4.70;;
18449;SDS011;9354;50.194;7.690;2024-03-02T00:20:54;6.90;;;4.57;;
18449;SDS011;9354;50.194;7.690;2024-03-02T00:23:23;8.27;;;4.50;;
18449;SDS011;9354;50.194;7.690;2024-03-02T00:25:51;6.87;;;4.27;;
18449;SDS011;9354;50.194;7.690;2024-03-02T00:28:21;9.40;;;4.93;;
18449;SDS011;9354;50.194;7.690;2024-03-02T00:30:56;8.30;;;5.03;;
18449;SDS011;9354;50.194;7.690;2024-03-02T00:33:30;9.07;;;4.60;;
18449;SDS011;9354;50.194;7.690;2024-03-02T00:36:01;9.77;;;4.80;;
18449;SDS011;9354;50.194;7.690;2024-03-02T00:38:30;8.30;;;4.87;;
18449;SDS011;9354;50.194;7.690;2024-03-02T00:40:58;7.77;;;4.30;;
18449;SDS011;9354;50.194;7.690;2024-03-02T00:43:37;7.23;;;4.00;;
18449;SDS011;9354;50.194;7.690;2024-03-02T00:46:07;8.43;;;4.50;;
18449;SDS011;9354;50.194;7.690;2024-03-02T00:48:34;8.63;;;4.33;;
18449;SDS011;9354;50.194;7.690;2024-03-02T00:51:04;8.57;;;4.70;;
18449;SDS011;9354;50.194;7.690;2024-03-02T00:53:31;7.67;;;4.30;;
18449;SDS011;9354;50.194;7.690;2024-03-02T00:55:59;8.23;;;4.33;;
18449;SDS011;9354;50.194;7.690;2024-03-02T00:58:27;9.20;;;4.57;;
18449;SDS011;9354;50.194;7.690;2024-03-02T01:00:57;7.80;;;4.33;;
18449;SDS011;9354;50.194;7.690;2024-03-02T01:03:25;5.97;;;3.70;;
18449;SDS011;9354;50.194;7.690;2024-03-02T01:05:52;8.77;;;3.47;;
18449;SDS011;9354;50.194;7.690;2024-03-02T01:08:21;6.93;;;4.00;;
18449;SDS011;9354;50.194;7.690;2024-03-02T01:10:49;6.80;;;3.67;;
18449;SDS011;9354;50.194;7.690;2024-03-02T01:13:17;7.83;;;4.00;;
18449;SDS011;9354;50.194;7.690;2024-03-02T01:15:44;10.20;;;4.00;;
18449;SDS011;9354;50.194;7.690;2024-03-02T01:18:11;7.00;;;4.17;;
18449;SDS011;9354;50.194;7.690;2024-03-02T01:20:39;6.10;;;4.20;;
18449;SDS011;9354;50.194;7.690;2024-03-02T01:23:06;8.07;;;4.90;;
18449;SDS011;9354;50.194;7.690;2024-03-02T01:25:35;8.23;;;4.97;;
18449;SDS011;9354;50.194;7.690;2024-03-02T01:28:03;11.03;;;4.87;;
18449;SDS011;9354;50.194;7.690;2024-03-02T01:30:31;8.50;;;4.80;;
18449;SDS011;9354;50.194;7.690;2024-03-02T01:32:58;11.43;;;5.30;;
18449;SDS011;9354;50.194;7.690;2024-03-02T01:35:25;8.53;;;5.10;;
18449;SDS011;9354;50.194;7.690;2024-03-02T01:37:53;7.83;;;4.77;;
18449;SDS011;9354;50.194;7.690;2024-03-02T01:40:21;10.80;;;5.03;;
18449;SDS011;9354;50.194;7.690;2024-03-02T01:42:53;9.73;;;5.77;;
18449;SDS011;9354;50.194;7.690;2024-03-02T01:45:21;10.03;;;5.87;;
18449;SDS011;9354;50.194;7.690;2024-03-02T01:47:48;9.77;;;5.63;;
18449;SDS011;9354;50.194;7.690;2024-03-02T01:50:17;10.90;;;6.23;;
18449;SDS011;9354;50.194;7.690;2024-03-02T01:52:52;10.27;;;6.50;;
18449;SDS011;9354;50.194;7.690;2024-03-02T01:55:19;10.33;;;6.50;;
18449;SDS011;9354;50.194;7.690;2024-03-02T01:57:47;11.53;;;6.83;;
18449;SDS011;9354;50.194;7.690;2024-03-02T02:00:18;12.10;;;7.17;;
18449;SDS011;9354;50.194;7.690;2024-03-02T02:02:46;12.63;;;6.83;;
18449;SDS011;9354;50.194;7.690;2024-03-02T02:05:13;15.93;;;8.70;;
18449;SDS011;9354;50.194;7.690;2024-03-02T02:07:41;14.50;;;8.37;;
18449;SDS011;9354;50.194;7.690;2024-03-02T02:10:09;15.17;;;8.27;;
18449;SDS011;9354;50.194;7.690;2024-03-02T02:12:37;18.70;;;9.43;;
18449;SDS011;9354;50.194;7.690;2024-03-02T02:15:20;19.80;;;10.50;;
18449;SDS011;9354;50.194;7.690;2024-03-02T02:17:51;19.63;;;10.37;;
18449;SDS011;9354;50.194;7.690;2024-03-02T02:20:18;18.63;;;10.23;;
18449;SDS011;9354;50.194;7.690;2024-03-02T02:22:57;18.53;;;10.40;;
18449;SDS011;9354;50.194;7.690;2024-03-02T02:25:25;19.50;;;10.60;;
18449;SDS011;9354;50.194;7.690;2024-03-02T02:27:53;23.00;;;10.67;;
18449;SDS011;9354;50.194;7.690;2024-03-02T02:30:21;19.40;;;10.60;;
18449;SDS011;9354;50.194;7.690;2024-03-02T02:32:49;20.00;;;10.67;;
18449;SDS011;9354;50.194;7.690;2024-03-02T02:35:16;20.50;;;11.00;;
18449;SDS011;9354;50.194;7.690;2024-03-02T02:37:44;20.77;;;10.70;;
18449;SDS011;9354;50.194;7.690;2024-03-02T02:40:14;20.00;;;10.33;;
18449;SDS011;9354;50.194;7.690;2024-03-02T02:42:44;20.00;;;10.60;;
18449;SDS011;9354;50.194;7.690;2024-03-02T02:45:11;22.73;;;11.33;;
18449;SDS011;9354;50.194;7.690;2024-03-02T02:47:40;21.23;;;11.30;;
18449;SDS011;9354;50.194;7.690;2024-03-02T02:50:08;24.40;;;11.67;;
18449;SDS011;9354;50.194;7.690;2024-03-02T02:52:37;25.13;;;11.37;;
18449;SDS011;9354;50.194;7.690;2024-03-02T02:55:06;28.63;;;13.07;;
18449;SDS011;9354;50.194;7.690;2024-03-02T02:57:36;24.53;;;13.43;;
18449;SDS011;9354;50.194;7.690;2024-03-02T03:00:05;23.00;;;13.13;;
18449;SDS011;9354;50.194;7.690;2024-03-02T03:02:39;25.73;;;13.40;;
18449;SDS011;9354;50.194;7.690;2024-03-02T03:05:08;28.90;;;14.40;;
18449;SDS011;9354;50.194;7.690;2024-03-02T03:07:36;31.40;;;13.70;;
18449;SDS011;9354;50.194;7.690;2024-03-02T03:10:05;27.67;;;13.53;;
18449;SDS011;9354;50.194;7.690;2024-03-02T03:12:33;34.40;;;13.80;;
18449;SDS011;9354;50.194;7.690;2024-03-02T03:15:03;30.60;;;13.73;;
18449;SDS011;9354;50.194;7.690;2024-03-02T03:17:32;29.83;;;15.13;;
18449;SDS011;9354;50.194;7.690;2024-03-02T03:20:00;27.90;;;15.30;;
18449;SDS011;9354;50.194;7.690;2024-03-02T03:22:29;33.13;;;15.03;;
18449;SDS011;9354;50.194;7.690;2024-03-02T03:24:57;30.80;;;15.20;;
18449;SDS011;9354;50.194;7.690;2024-03-02T03:27:25;31.80;;;15.33;;
18449;SDS011;9354;50.194;7.690;2024-03-02T03:29:54;29.47;;;15.50;;
18449;SDS011;9354;50.194;7.690;2024-03-02T03:32:21;33.03;;;15.87;;
18449;SDS011;9354;50.194;7.690;2024-03-02T03:34:49;30.03;;;14.70;;
18449;SDS011;9354;50.194;7.690;2024-03-02T03:37:16;34.10;;;15.63;;
18449;SDS011;9354;50.194;7.690;2024-03-02T03:39:44;29.77;;;15.40;;
18449;SDS011;9354;50.194;7.690;2024-03-02T03:42:11;31.60;;;14.93;;
18449;SDS011;9354;50.194;7.690;2024-03-02T03:44:38;30.37;;;15.40;;
18449;SDS011;9354;50.194;7.690;2024-03-02T03:47:08;30.30;;;15.27;;
18449;SDS011;9354;50.194;7.690;2024-03-02T03:49:36;30.33;;;14.23;;
18449;SDS011;9354;50.194;7.690;2024-03-02T03:52:03;31.53;;;15.30;;
18449;SDS011;9354;50.194;7.690;2024-03-02T03:54:31;33.87;;;15.07;;
18449;SDS011;9354;50.194;7.690;2024-03-02T03:56:58;30.07;;;14.80;;
18449;SDS011;9354;50.194;7.690;2024-03-02T03:59:26;30.03;;;14.97;;
18449;SDS011;9354;50.194;7.690;2024-03-02T04:01:53;34.03;;;14.63;;
18449;SDS011;9354;50.194;7.690;2024-03-02T04:04:22;29.07;;;14.50;;
18449;SDS011;9354;50.194;7.690;2024-03-02T04:06:49;30.13;;;12.90;;
18449;SDS011;9354;50.194;7.690;2024-03-02T04:09:17;24.07;;;12.23;;
18449;SDS011;9354;50.194;7.690;2024-03-02T04:11:44;27.23;;;12.83;;
18449;SDS011;9354;50.194;7.690;2024-03-02T04:14:11;23.80;;;11.77;;
18449;SDS011;9354;50.194;7.690;2024-03-02T04:16:39;25.53;;;13.33;;
18449;SDS011;9354;50.194;7.690;2024-03-02T04:19:06;28.30;;;13.63;;
18449;SDS011;9354;50.194;7.690;2024-03-02T04:21:35;25.30;;;13.07;;
18449;SDS011;9354;50.194;7.690;2024-03-02T04:24:03;25.77;;;11.90;;
18449;SDS011;9354;50.194;7.690;2024-03-02T04:26:30;25.40;;;12.00;;
18449;SDS011;9354;50.194;7.690;2024-03-02T04:28:58;23.60;;;11.47;;
18449;SDS011;9354;50.194;7.690;2024-03-02T04:31:25;22.83;;;11.17;;
18449;SDS011;9354;50.194;7.690;2024-03-02T04:33:53;23.73;;;11.20;;
18449;SDS011;9354;50.194;7.690;2024-03-02T04:36:20;23.70;;;11.63;;
18449;SDS011;9354;50.194;7.690;2024-03-02T04:38:49;24.73;;;11.73;;
18449;SDS011;9354;50.194;7.690;2024-03-02T04:41:16;28.00;;;12.83;;
18449;SDS011;9354;50.194;7.690;2024-03-02T04:43:44;25.37;;;12.70;;
18449;SDS011;9354;50.194;7.690;2024-03-02T04:46:11;24.97;;;13.47;;
18449;SDS011;9354;50.194;7.690;2024-03-02T04:48:38;27.40;;;13.47;;
18449;SDS011;9354;50.194;7.690;2024-03-02T04:51:06;26.17;;;13.70;;
18449;SDS011;9354;50.194;7.690;2024-03-02T04:53:33;24.03;;;12.83;;
18449;SDS011;9354;50.194;7.690;2024-03-02T04:56:02;28.67;;;13.97;;
18449;SDS011;9354;50.194;7.690;2024-03-02T04:59:02;31.97;;;14.10;;
18449;SDS011;9354;50.194;7.690;2024-03-02T05:01:29;29.13;;;14.43;;
18449;SDS011;9354;50.194;7.690;2024-03-02T05:03:57;30.23;;;14.47;;
18449;SDS011;9354;50.194;7.690;2024-03-02T05:06:24;28.77;;;14.07;;
18449;SDS011;9354;50.194;7.690;2024-03-02T05:08:52;30.23;;;13.70;;
18449;SDS011;9354;50.194;7.690;2024-03-02T05:11:20;29.23;;;14.60;;
18449;SDS011;9354;50.194;7.690;2024-03-02T05:14:10;30.80;;;14.80;;
18449;SDS011;9354;50.194;7.690;2024-03-02T05:16:38;29.93;;;13.70;;
18449;SDS011;9354;50.194;7.690;2024-03-02T05:19:06;32.07;;;16.17;;
18449;SDS011;9354;50.194;7.690;2024-03-02T05:21:34;31.40;;;14.90;;
18449;SDS011;9354;50.194;7.690;2024-03-02T05:24:01;31.87;;;15.73;;
18449;SDS011;9354;50.194;7.690;2024-03-02T05:26:30;31.73;;;15.43;;
18449;SDS011;9354;50.194;7.690;2024-03-02T05:28:57;32.37;;;15.03;;
18449;SDS011;9354;50.194;7.690;2024-03-02T05:31:24;32.00;;;14.70;;
18449;SDS011;9354;50.194;7.690;2024-03-02T05:33:51;28.27;;;14.17;;
18449;SDS011;9354;50.194;7.690;2024-03-02T05:36:19;26.87;;;14.50;;
18449;SDS011;9354;50.194;7.690;2024-03-02T05:38:47;29.57;;;14.10;;
18449;SDS011;9354;50.194;7.690;2024-03-02T05:41:14;30.50;;;14.63;;
18449;SDS011;9354;50.194;7.690;2024-03-02T05:43:43;26.13;;;13.77;;
18449;SDS011;9354;50.194;7.690;2024-03-02T05:46:10;28.93;;;13.67;;
18449;SDS011;9354;50.194;7.690;2024-03-02T05:48:38;27.83;;;13.77;;
18449;SDS011;9354;50.194;7.690;2024-03-02T05:51:06;26.90;;;14.00;;
18449;SDS011;9354;50.194;7.690;2024-03-02T05:53:33;29.43;;;13.63;;
18449;SDS011;9354;50.194;7.690;2024-03-02T05:56:03;27.17;;;13.13;;
18449;SDS011;9354;50.194;7.690;2024-03-02T05:58:31;29.70;;;14.40;;
18449;SDS011;9354;50.194;7.690;2024-03-02T06:01:13;29.50;;;13.67;;
18449;SDS011;9354;50.194;7.690;2024-03-02T06:03:40;28.63;;;13.60;;
18449;SDS011;9354;50.194;7.690;2024-03-02T06:06:08;28.73;;;13.80;;
18449;SDS011;9354;50.194;7.690;2024-03-02T06:08:35;27.30;;;13.53;;
18449;SDS011;9354;50.194;7.690;2024-03-02T06:11:03;27.13;;;12.90;;
18449;SDS011;9354;50.194;7.690;2024-03-02T06:13:30;26.80;;;13.70;;
18449;SDS011;9354;50.194;7.690;2024-03-02T06:15:57;26.00;;;13.83;;
18449;SDS011;9354;50.194;7.690;2024-03-02T06:18:26;31.10;;;14.83;;
18449;SDS011;9354;50.194;7.690;2024-03-02T06:20:54;26.53;;;13.43;;
18449;SDS011;9354;50.194;7.690;2024-03-02T06:23:21;28.23;;;13.03;;
18449;SDS011;9354;50.194;7.690;2024-03-02T06:25:49;29.27;;;14.30;;
18449;SDS011;9354;50.194;7.690;2024-03-02T06:28:16;27.77;;;13.80;;
18449;SDS011;9354;50.194;7.690;2024-03-02T06:30:44;27.80;;;13.80;;
18449;SDS011;9354;50.194;7.690;2024-03-02T06:33:11;28.77;;;13.97;;
18449;SDS011;9354;50.194;7.690;2024-03-02T06:35:40;26.77;;;13.97;;
18449;SDS011;9354;50.194;7.690;2024-03-02T06:38:08;25.27;;;13.10;;
18449;SDS011;9354;50.194;7.690;2024-03-02T06:40:35;24.90;;;12.27;;
18449;SDS011;9354;50.194;7.690;2024-03-02T06:43:08;27.77;;;13.33;;
18449;SDS011;9354;50.194;7.690;2024-03-02T06:45:35;24.60;;;12.53;;
18449;SDS011;9354;50.194;7.690;2024-03-02T06:48:03;25.97;;;12.57;;
18449;SDS011;9354;50.194;7.690;2024-03-02T06:50:31;24.27;;;12.27;;
18449;SDS011;9354;50.194;7.690;2024-03-02T06:53:00;22.97;;;12.03;;
18449;SDS011;9354;50.194;7.690;2024-03-02T06:55:29;32.40;;;12.57;;
18449;SDS011;9354;50.194;7.690;2024-03-02T06:57:57;25.77;;;12.60;;
18449;SDS011;9354;50.194;7.690;2024-03-02T07:00:24;25.57;;;11.47;;
18449;SDS011;9354;50.194;7.690;2024-03-02T07:02:52;23.70;;;11.70;;
18449;SDS011;9354;50.194;7.690;2024-03-02T07:05:19;25.80;;;12.07;;
18449;SDS011;9354;50.194;7.690;2024-03-02T07:07:47;22.03;;;11.20;;
18449;SDS011;9354;50.194;7.690;2024-03-02T07:10:16;27.50;;;12.83;;
18449;SDS011;9354;50.194;7.690;2024-03-02T07:12:45;25.93;;;13.10;;
18449;SDS011;9354;50.194;7.690;2024-03-02T07:15:12;25.90;;;11.60;;
18449;SDS011;9354;50.194;7.690;2024-03-02T07:18:02;24.63;;;11.57;;
18449;SDS011;9354;50.194;7.690;2024-03-02T07:20:30;22.20;;;11.93;;
18449;SDS011;9354;50.194;7.690;2024-03-02T07:22:58;23.70;;;11.30;;
18449;SDS011;9354;50.194;7.690;2024-03-02T07:25:26;22.07;;;11.63;;
18449;SDS011;9354;50.194;7.690;2024-03-02T07:27:54;24.20;;;11.53;;
18449;SDS011;9354;50.194;7.690;2024-03-02T07:30:22;23.70;;;11.57;;
18449;SDS011;9354;50.194;7.690;2024-03-02T07:32:49;24.63;;;11.67;;
18449;SDS011;9354;50.194;7.690;2024-03-02T07:35:17;21.10;;;11.47;;
18449;SDS011;9354;50.194;7.690;2024-03-02T07:37:44;20.73;;;10.67;;
18449;SDS011;9354;50.194;7.690;2024-03-02T07:40:12;24.77;;;11.90;;
18449;SDS011;9354;50.194;7.690;2024-03-02T07:42:41;22.53;;;10.90;;
18449;SDS011;9354;50.194;7.690;2024-03-02T07:45:08;18.83;;;10.70;;
18449;SDS011;9354;50.194;7.690;2024-03-02T07:47:36;20.77;;;10.50;;
18449;SDS011;9354;50.194;7.690;2024-03-02T07:50:04;21.43;;;10.60;;
18449;SDS011;9354;50.194;7.690;2024-03-02T07:52:32;18.00;;;10.13;;
18449;SDS011;9354;50.194;7.690;2024-03-02T07:55:00;16.77;;;9.00;;
18449;SDS011;9354;50.194;7.690;2024-03-02T07:57:27;16.83;;;8.90;;
18449;SDS011;9354;50.194;7.690;2024-03-02T07:59:56;16.83;;;8.63;;
18449;SDS011;9354;50.194;7.690;2024-03-02T08:02:25;16.07;;;8.13;;
18449;SDS011;9354;50.194;7.690;2024-03-02T08:04:52;14.37;;;7.83;;
18449;SDS011;9354;50.194;7.690;2024-03-02T08:07:20;16.97;;;8.37;;
18449;SDS011;9354;50.194;7.690;2024-03-02T08:09:47;15.33;;;8.13;;
18449;SDS011;9354;50.194;7.690;2024-03-02T08:12:14;15.17;;;8.40;;
18449;SDS011;9354;50.194;7.690;2024-03-02T08:14:42;15.53;;;8.67;;
18449;SDS011;9354;50.194;7.690;2024-03-02T08:17:11;18.73;;;8.70;;
18449;SDS011;9354;50.194;7.690;2024-03-02T08:19:38;13.73;;;7.83;;
18449;SDS011;9354;50.194;7.690;2024-03-02T08:22:06;14.23;;;7.57;;
18449;SDS011;9354;50.194;7.690;2024-03-02T08:24:33;15.40;;;8.13;;
18449;SDS011;9354;50.194;7.690;2024-03-02T08:27:01;14.80;;;8.20;;
18449;SDS011;9354;50.194;7.690;2024-03-02T08:29:29;13.57;;;7.30;;
18449;SDS011;9354;50.194;7.690;2024-03-02T08:31:57;14.47;;;7.30;;
18449;SDS011;9354;50.194;7.690;2024-03-02T08:34:25;15.40;;;7.47;;
18449;SDS011;9354;50.194;7.690;2024-03-02T08:36:53;12.40;;;7.00;;
18449;SDS011;9354;50.194;7.690;2024-03-02T08:39:20;14.10;;;8.23;;
18449;SDS011;9354;50.194;7.690;2024-03-02T08:41:48;12.83;;;6.83;;
18449;SDS011;9354;50.194;7.690;2024-03-02T08:44:15;11.00;;;6.83;;
18449;SDS011;9354;50.194;7.690;2024-03-02T08:46:43;13.13;;;7.13;;
18449;SDS011;9354;50.194;7.690;2024-03-02T08:49:11;11.90;;;6.47;;
18449;SDS011;9354;50.194;7.690;2024-03-02T08:51:40;13.63;;;6.90;;
18449;SDS011;9354;50.194;7.690;2024-03-02T08:54:08;12.63;;;7.37;;
18449;SDS011;9354;50.194;7.690;2024-03-02T08:56:35;9.60;;;6.00;;
18449;SDS011;9354;50.194;7.690;2024-03-02T08:59:03;13.20;;;6.17;;
18449;SDS011;9354;50.194;7.690;2024-03-02T09:01:30;10.70;;;5.73;;
18449;SDS011;9354;50.194;7.690;2024-03-02T09:03:58;10.77;;;5.90;;
18449;SDS011;9354;50.194;7.690;2024-03-02T09:06:25;9.67;;;5.33;;
18449;SDS011;9354;50.194;7.690;2024-03-02T09:08:54;8.90;;;4.93;;
18449;SDS011;9354;50.194;7.690;2024-03-02T09:11:21;8.60;;;4.90;;
18449;SDS011;9354;50.194;7.690;2024-03-02T09:13:49;9.80;;;5.10;;
18449;SDS011;9354;50.194;7.690;2024-03-02T09:16:16;10.47;;;4.83;;
18449;SDS011;9354;50.194;7.690;2024-03-02T09:18:44;10.63;;;4.40;;
18449;SDS011;9354;50.194;7.690;2024-03-02T09:21:11;8.60;;;4.33;;
18449;SDS011;9354;50.194;7.690;2024-03-02T09:23:39;7.00;;;4.30;;
18449;SDS011;9354;50.194;7.690;2024-03-02T09:26:08;5.87;;;3.50;;
18449;SDS011;9354;50.194;7.690;2024-03-02T09:28:35;5.83;;;3.70;;
18449;SDS011;9354;50.194;7.690;2024-03-02T09:31:02;7.33;;;3.93;;
18449;SDS011;9354;50.194;7.690;2024-03-02T09:33:30;9.47;;;4.20;;
18449;SDS011;9354;50.194;7.690;2024-03-02T09:35:57;7.97;;;4.27;;
18449;SDS011;9354;50.194;7.690;2024-03-02T09:38:25;7.30;;;3.43;;
18449;SDS011;9354;50.194;7.690;2024-03-02T09:40:52;7.83;;;3.90;;
18449;SDS011;9354;50.194;7.690;2024-03-02T09:43:21;7.70;;;3.83;;
18449;SDS011;9354;50.194;7.690;2024-03-02T09:45:49;5.67;;;3.70;;
18449;SDS011;9354;50.194;7.690;2024-03-02T09:48:18;6.73;;;3.57;;
18449;SDS011;9354;50.194;7.690;2024-03-02T09:50:46;6.80;;;3.67;;
18449;SDS011;9354;50.194;7.690;2024-03-02T09:53:13;7.50;;;4.13;;
18449;SDS011;9354;50.194;7.690;2024-03-02T09:55:45;4.97;;;3.10;;
18449;SDS011;9354;50.194;7.690;2024-03-02T09:58:13;6.90;;;3.37;;
18449;SDS011;9354;50.194;7.690;2024-03-02T10:00:42;6.70;;;3.53;;
18449;SDS011;9354;50.194;7.690;2024-03-02T10:03:11;6.70;;;3.70;;
18449;SDS011;9354;50.194;7.690;2024-03-02T10:05:39;8.10;;;3.57;;
18449;SDS011;9354;50.194;7.690;2024-03-02T10:08:06;6.73;;;3.40;;
18449;SDS011;9354;50.194;7.690;2024-03-02T10:10:34;9.77;;;3.80;;
18449;SDS011;9354;50.194;7.690;2024-03-02T10:13:05;4.73;;;3.10;;
18449;SDS011;9354;50.194;7.690;2024-03-02T10:15:34;5.57;;;3.50;;
18449;SDS011;9354;50.194;7.690;2024-03-02T10:18:04;10.47;;;3.60;;
18449;SDS011;9354;50.194;7.690;2024-03-02T10:20:35;9.43;;;3.40;;
18449;SDS011;9354;50.194;7.690;2024-03-02T10:23:12;5.53;;;3.27;;
18449;SDS011;9354;50.194;7.690;2024-03-02T10:25:41;7.20;;;3.23;;
18449;SDS011;9354;50.194;7.690;2024-03-02T10:28:09;5.07;;;3.10;;
18449;SDS011;9354;50.194;7.690;2024-03-02T10:30:36;5.90;;;3.07;;
18449;SDS011;9354;50.194;7.690;2024-03-02T10:33:05;5.77;;;3.13;;
18449;SDS011;9354;50.194;7.690;2024-03-02T10:35:33;7.40;;;3.00;;
18449;SDS011;9354;50.194;7.690;2024-03-02T10:38:03;6.00;;;3.43;;
18449;SDS011;9354;50.194;7.690;2024-03-02T10:40:32;6.33;;;2.80;;
18449;SDS011;9354;50.194;7.690;2024-03-02T10:42:59;5.00;;;2.90;;
18449;SDS011;9354;50.194;7.690;2024-03-02T10:45:28;4.43;;;2.40;;
18449;SDS011;9354;50.194;7.690;2024-03-02T10:47:56;5.37;;;2.60;;
18449;SDS011;9354;50.194;7.690;2024-03-02T10:50:26;4.77;;;2.33;;
18449;SDS011;9354;50.194;7.690;2024-03-02T10:52:53;3.93;;;2.73;;
18449;SDS011;9354;50.194;7.690;2024-03-02T10:55:21;5.43;;;2.43;;
18449;SDS011;9354;50.194;7.690;2024-03-02T10:57:50;3.03;;;2.00;;
18449;SDS011;9354;50.194;7.690;2024-03-02T11:00:19;6.23;;;2.30;;
18449;SDS011;9354;50.194;7.690;2024-03-02T11:02:51;6.13;;;3.03;;
18449;SDS011;9354;50.194;7.690;2024-03-02T11:05:25;6.33;;;2.53;;
18449;SDS011;9354;50.194;7.690;2024-03-02T11:07:58;5.30;;;2.23;;
18449;SDS011;9354;50.194;7.690;2024-03-02T11:10:31;4.00;;;2.40;;
18449;SDS011;9354;50.194;7.690;2024-03-02T11:13:03;3.30;;;2.23;;
18449;SDS011;9354;50.194;7.690;2024-03-02T11:15:32;2.83;;;1.73;;
18449;SDS011;9354;50.194;7.690;2024-03-02T11:18:03;4.90;;;2.67;;
18449;SDS011;9354;50.194;7.690;2024-03-02T11:20:36;4.30;;;2.53;;
18449;SDS011;9354;50.194;7.690;2024-03-02T11:23:06;9.80;;;2.60;;
18449;SDS011;9354;50.194;7.690;2024-03-02T11:25:34;4.70;;;2.30;;
18449;SDS011;9354;50.194;7.690;2024-03-02T11:28:02;3.40;;;2.10;;
18449;SDS011;9354;50.194;7.690;2024-03-02T11:30:49;3.70;;;1.70;;
18449;SDS011;9354;50.194;7.690;2024-03-02T11:33:24;3.43;;;1.83;;
18449;SDS011;9354;50.194;7.690;2024-03-02T11:35:54;5.93;;;2.30;;
18449;SDS011;9354;50.194;7.690;2024-03-02T11:38:22;3.63;;;2.10;;
18449;SDS011;9354;50.194;7.690;2024-03-02T11:40:54;4.60;;;2.10;;
18449;SDS011;9354;50.194;7.690;2024-03-02T11:43:21;4.03;;;1.87;;
18449;SDS011;9354;50.194;7.690;2024-03-02T11:45:54;5.20;;;2.10;;
18449;SDS011;9354;50.194;7.690;2024-03-02T11:48:24;5.27;;;1.80;;
18449;SDS011;9354;50.194;7.690;2024-03-02T11:50:52;2.47;;;1.63;;
18449;SDS011;9354;50.194;7.690;2024-03-02T11:53:24;3.73;;;1.57;;
18449;SDS011;9354;50.194;7.690;2024-03-02T11:55:55;3.33;;;1.50;;
18449;SDS011;9354;50.194;7.690;2024-03-02T11:58:22;4.30;;;1.70;;
18449;SDS011;9354;50.194;7.690;2024-03-02T12:00:52;2.93;;;1.30;;
18449;SDS011;9354;50.194;7.690;2024-03-02T12:03:21;2.77;;;1.40;;
18449;SDS011;9354;50.194;7.690;2024-03-02T12:05:50;4.47;;;1.83;;
18449;SDS011;9354;50.194;7.690;2024-03-02T12:08:20;3.33;;;1.43;;
18449;SDS011;9354;50.194;7.690;2024-03-02T12:10:58;2.93;;;1.47;;
18449;SDS011;9354;50.194;7.690;2024-03-02T12:13:27;4.50;;;1.70;;
18449;SDS011;9354;50.194;7.690;2024-03-02T12:15:54;3.30;;;2.00;;
18449;SDS011;9354;50.194;7.690;2024-03-02T12:18:22;2.83;;;1.80;;
18449;SDS011;9354;50.194;7.690;2024-03-02T12:20:50;2.77;;;1.80;;
18449;SDS011;9354;50.194;7.690;2024-03-02T12:23:23;4.40;;;1.97;;
18449;SDS011;9354;50.194;7.690;2024-03-02T12:25:50;3.67;;;1.67;;
18449;SDS011;9354;50.194;7.690;2024-03-02T12:28:18;3.43;;;1.60;;
18449;SDS011;9354;50.194;7.690;2024-03-02T12:30:46;3.67;;;1.80;;
18449;SDS011;9354;50.194;7.690;2024-03-02T12:33:15;8.30;;;1.80;;
18449;SDS011;9354;50.194;7.690;2024-03-02T12:35:44;2.00;;;1.40;;
18449;SDS011;9354;50.194;7.690;2024-03-02T12:38:11;2.83;;;1.50;;
18449;SDS011;9354;50.194;7.690;2024-03-02T12:40:40;4.53;;;1.57;;
18449;SDS011;9354;50.194;7.690;2024-03-02T12:43:08;2.37;;;1.63;;
18449;SDS011;9354;50.194;7.690;2024-03-02T12:45:36;2.60;;;1.60;;
18449;SDS011;9354;50.194;7.690;2024-03-02T12:48:04;2.80;;;2.07;;
18449;SDS011;9354;50.194;7.690;2024-03-02T12:50:32;4.53;;;2.17;;
18449;SDS011;9354;50.194;7.690;2024-03-02T12:53:00;3.47;;;2.40;;
18449;SDS011;9354;50.194;7.690;2024-03-02T12:55:28;2.80;;;2.00;;
18449;SDS011;9354;50.194;7.690;2024-03-02T12:57:57;3.30;;;1.80;;
18449;SDS011;9354;50.194;7.690;2024-03-02T13:00:24;7.60;;;2.93;;
18449;SDS011;9354;50.194;7.690;2024-03-02T13:02:52;5.43;;;2.50;;
18449;SDS011;9354;50.194;7.690;2024-03-02T13:05:19;3.37;;;1.97;;
18449;SDS011;9354;50.194;7.690;2024-03-02T13:07:48;2.27;;;1.20;;
18449;SDS011;9354;50.194;7.690;2024-03-02T13:10:16;2.77;;;1.60;;
18449;SDS011;9354;50.194;7.690;2024-03-02T13:12:43;3.53;;;2.03;;
18449;SDS011;9354;50.194;7.690;2024-03-02T13:15:13;4.13;;;2.17;;
18449;SDS011;9354;50.194;7.690;2024-03-02T13:17:42;4.20;;;1.97;;
18449;SDS011;9354;50.194;7.690;2024-03-02T13:20:11;4.53;;;1.80;;
18449;SDS011;9354;50.194;7.690;2024-03-02T13:22:39;3.33;;;2.03;;
18449;SDS011;9354;50.194;7.690;2024-03-02T13:25:07;3.57;;;2.10;;
18449;SDS011;9354;50.194;7.690;2024-03-02T13:27:36;3.83;;;2.07;;
18449;SDS011;9354;50.194;7.690;2024-03-02T13:30:04;3.67;;;2.40;;
18449;SDS011;9354;50.194;7.690;2024-03-02T13:32:36;3.63;;;2.00;;
18449;SDS011;9354;50.194;7.690;2024-03-02T13:35:03;4.37;;;2.70;;
18449;SDS011;9354;50.194;7.690;2024-03-02T13:37:31;4.20;;;2.80;;
18449;SDS011;9354;50.194;7.690;2024-03-02T13:39:58;4.50;;;2.83;;
18449;SDS011;9354;50.194;7.690;2024-03-02T13:42:25;5.10;;;3.30;;
18449;SDS011;9354;50.194;7.690;2024-03-02T13:44:53;6.07;;;3.20;;
18449;SDS011;9354;50.194;7.690;2024-03-02T13:47:20;6.17;;;3.07;;
18449;SDS011;9354;50.194;7.690;2024-03-02T13:49:49;6.33;;;3.20;;
18449;SDS011;9354;50.194;7.690;2024-03-02T13:52:17;3.90;;;2.37;;
18449;SDS011;9354;50.194;7.690;2024-03-02T13:54:45;5.67;;;3.03;;
18449;SDS011;9354;50.194;7.690;2024-03-02T13:57:13;5.37;;;2.40;;
18449;SDS011;9354;50.194;7.690;2024-03-02T13:59:41;4.47;;;2.83;;
18449;SDS011;9354;50.194;7.690;2024-03-02T14:02:09;5.63;;;3.07;;
18449;SDS011;9354;50.194;7.690;2024-03-02T14:04:38;4.20;;;2.57;;
18449;SDS011;9354;50.194;7.690;2024-03-02T14:07:07;6.37;;;3.20;;
18449;SDS011;9354;50.194;7.690;2024-03-02T14:09:36;4.40;;;2.97;;
18449;SDS011;9354;50.194;7.690;2024-03-02T14:12:04;6.17;;;3.40;;
18449;SDS011;9354;50.194;7.690;2024-03-02T14:14:32;7.13;;;3.40;;
18449;SDS011;9354;50.194;7.690;2024-03-02T14:16:59;6.30;;;3.77;;
18449;SDS011;9354;50.194;7.690;2024-03-02T14:19:29;7.27;;;3.30;;
18449;SDS011;9354;50.194;7.690;2024-03-02T14:21:57;5.70;;;3.10;;
18449;SDS011;9354;50.194;7.690;2024-03-02T14:24:26;4.10;;;2.40;;
18449;SDS011;9354;50.194;7.690;2024-03-02T14:26:54;4.67;;;2.60;;
18449;SDS011;9354;50.194;7.690;2024-03-02T14:29:25;5.63;;;2.70;;
18449;SDS011;9354;50.194;7.690;2024-03-02T14:31:52;5.30;;;3.00;;
18449;SDS011;9354;50.194;7.690;2024-03-02T14:34:19;4.73;;;2.90;;
18449;SDS011;9354;50.194;7.690;2024-03-02T14:36:47;5.17;;;3.03;;
18449;SDS011;9354;50.194;7.690;2024-03-02T14:39:15;5.73;;;3.07;;
18449;SDS011;9354;50.194;7.690;2024-03-02T14:41:46;6.43;;;3.47;;
18449;SDS011;9354;50.194;7.690;2024-03-02T14:44:14;4.97;;;3.00;;
18449;SDS011;9354;50.194;7.690;2024-03-02T14:46:43;4.90;;;3.20;;
18449;SDS011;9354;50.194;7.690;2024-03-02T14:49:13;5.77;;;3.33;;
18449;SDS011;9354;50.194;7.690;2024-03-02T14:51:40;6.07;;;3.27;;
18449;SDS011;9354;50.194;7.690;2024-03-02T14:54:08;7.73;;;3.07;;
18449;SDS011;9354;50.194;7.690;2024-03-02T14:56:35;5.47;;;2.90;;
18449;SDS011;9354;50.194;7.690;2024-03-02T14:59:04;6.23;;;3.67;;